CheckWX is a tool to help pilots better visualize weather data.  It is not intended as a substitute for an official pre-flight weather briefing.

15:22:40 UTC

ENQA METAR
Troll A Platform Heliport
Norway
Current

33 mins ago

ENQA 281450Z AUTO 01044KT 9999NDV -RA BKN034/// 02/M06 Q1036 REFZRA W03/S5
Observed
Mar-28 @ 14:50 UTC
Wind
  • 010° at 44 KTS
Visibility
Conditions
Light Rain
Cloud Levels
  • Broken at 3,400' AGL
Temperature
C / 36°F
Dewpoint
-6°C / 21°F
Humidity
56%
Altimeter
30.59" Hg
Pressure
1035.92 hPa
Previous

1 hour ago

ENQA 281420Z AUTO 01037KT 9999NDV -FZRA BKN022/// BKN074/// 02/M04 Q1035 W03/S6
Observed
Mar-28 @ 14:20 UTC
Wind
  • 010° at 37 KTS
Visibility
Conditions
Light Freezing Rain
Cloud Levels
  • Broken at 2,200' AGL
  • Broken at 7,400' AGL
Temperature
C / 36°F
Dewpoint
-4°C / 25°F
Humidity
65%
Altimeter
30.56" Hg
Pressure
1034.92 hPa
Previous

2 hours ago

ENQA 281350Z AUTO 02051KT 9999NDV -SHRA FEW024/// SCT032/// 01/M04 Q1035 W03/S5
Observed
Mar-28 @ 13:50 UTC
Wind
  • 020° at 51 KTS
Visibility
Conditions
Light Showers, Rain
Cloud Levels
  • Few at 2,400' AGL
  • Scattered at 3,200' AGL
Temperature
C / 34°F
Dewpoint
-4°C / 25°F
Humidity
70%
Altimeter
30.56" Hg
Pressure
1034.92 hPa